sensor_id;sensor_type;location;lat;lon;timestamp;pressure;altitude;pressure_sealevel;temperature;humidity
4590;BME280;2307;48.448;9.216;2023-04-25T00:02:21;94803.47;;;8.15;100.00
4590;BME280;2307;48.448;9.216;2023-04-25T00:04:47;94798.91;;;8.10;100.00
4590;BME280;2307;48.448;9.216;2023-04-25T00:07:14;94797.41;;;8.02;100.00
4590;BME280;2307;48.448;9.216;2023-04-25T00:09:43;94799.69;;;8.11;100.00
4590;BME280;2307;48.448;9.216;2023-04-25T00:12:09;94803.00;;;8.06;100.00
4590;BME280;2307;48.448;9.216;2023-04-25T00:14:35;94795.59;;;8.03;100.00
4590;BME280;2307;48.448;9.216;2023-04-25T00:17:02;94794.03;;;8.02;100.00
4590;BME280;2307;48.448;9.216;2023-04-25T00:19:29;94794.56;;;8.04;100.00
4590;BME280;2307;48.448;9.216;2023-04-25T00:21:55;94802.47;;;8.04;100.00
4590;BME280;2307;48.448;9.216;2023-04-25T00:24:22;94792.84;;;8.10;100.00
4590;BME280;2307;48.448;9.216;2023-04-25T00:26:50;94786.28;;;8.12;100.00
4590;BME280;2307;48.448;9.216;2023-04-25T00:29:16;94782.19;;;8.16;100.00
4590;BME280;2307;48.448;9.216;2023-04-25T00:31:43;94793.25;;;8.18;100.00
4590;BME280;2307;48.448;9.216;2023-04-25T00:34:09;94784.38;;;8.08;100.00
4590;BME280;2307;48.448;9.216;2023-04-25T00:36:36;94782.31;;;8.10;100.00
4590;BME280;2307;48.448;9.216;2023-04-25T00:39:03;94786.59;;;7.99;100.00
4590;BME280;2307;48.448;9.216;2023-04-25T00:41:30;94777.78;;;8.05;100.00
4590;BME280;2307;48.448;9.216;2023-04-25T00:43:57;94781.84;;;8.13;100.00
4590;BME280;2307;48.448;9.216;2023-04-25T00:46:25;94786.78;;;8.09;100.00
4590;BME280;2307;48.448;9.216;2023-04-25T00:48:51;94785.19;;;8.08;100.00
4590;BME280;2307;48.448;9.216;2023-04-25T00:51:19;94774.06;;;8.18;100.00
4590;BME280;2307;48.448;9.216;2023-04-25T00:53:46;94771.91;;;8.15;100.00
4590;BME280;2307;48.448;9.216;2023-04-25T00:56:13;94775.97;;;8.22;100.00
4590;BME280;2307;48.448;9.216;2023-04-25T00:58:40;94774.84;;;8.18;100.00
4590;BME280;2307;48.448;9.216;2023-04-25T01:01:08;94772.88;;;8.25;100.00
4590;BME280;2307;48.448;9.216;2023-04-25T01:03:34;94764.31;;;8.18;100.00
4590;BME280;2307;48.448;9.216;2023-04-25T01:06:05;94759.44;;;8.10;100.00
4590;BME280;2307;48.448;9.216;2023-04-25T01:08:33;94765.66;;;8.04;100.00
4590;BME280;2307;48.448;9.216;2023-04-25T01:11:00;94754.88;;;8.06;100.00
4590;BME280;2307;48.448;9.216;2023-04-25T01:13:26;94762.81;;;7.94;100.00
4590;BME280;2307;48.448;9.216;2023-04-25T01:15:53;94759.44;;;7.82;100.00
4590;BME280;2307;48.448;9.216;2023-04-25T01:18:20;94761.22;;;7.93;100.00
4590;BME280;2307;48.448;9.216;2023-04-25T01:20:47;94758.41;;;7.83;100.00
4590;BME280;2307;48.448;9.216;2023-04-25T01:23:17;94761.34;;;7.86;100.00
4590;BME280;2307;48.448;9.216;2023-04-25T01:25:44;94759.09;;;7.78;100.00
4590;BME280;2307;48.448;9.216;2023-04-25T01:28:11;94756.72;;;7.77;100.00
4590;BME280;2307;48.448;9.216;2023-04-25T01:30:38;94753.06;;;7.66;100.00
4590;BME280;2307;48.448;9.216;2023-04-25T01:33:04;94745.44;;;7.53;100.00
4590;BME280;2307;48.448;9.216;2023-04-25T01:35:31;94749.75;;;7.59;100.00
4590;BME280;2307;48.448;9.216;2023-04-25T01:37:58;94749.31;;;7.62;100.00
4590;BME280;2307;48.448;9.216;2023-04-25T01:40:25;94748.63;;;7.55;100.00
4590;BME280;2307;48.448;9.216;2023-04-25T01:42:53;94746.69;;;7.51;100.00
4590;BME280;2307;48.448;9.216;2023-04-25T01:45:20;94745.22;;;7.43;100.00
4590;BME280;2307;48.448;9.216;2023-04-25T01:47:46;94750.50;;;7.31;100.00
4590;BME280;2307;48.448;9.216;2023-04-25T01:50:14;94761.91;;;7.37;100.00
4590;BME280;2307;48.448;9.216;2023-04-25T01:52:41;94753.25;;;7.25;100.00
4590;BME280;2307;48.448;9.216;2023-04-25T01:55:08;94753.25;;;7.25;100.00
4590;BME280;2307;48.448;9.216;2023-04-25T01:57:36;94747.63;;;7.21;100.00
4590;BME280;2307;48.448;9.216;2023-04-25T02:00:04;94755.28;;;7.34;100.00
4590;BME280;2307;48.448;9.216;2023-04-25T02:02:31;94750.94;;;7.40;100.00
4590;BME280;2307;48.448;9.216;2023-04-25T02:04:58;94755.97;;;7.41;100.00
4590;BME280;2307;48.448;9.216;2023-04-25T02:07:25;94753.81;;;7.38;100.00
4590;BME280;2307;48.448;9.216;2023-04-25T02:09:51;94756.31;;;7.33;100.00
4590;BME280;2307;48.448;9.216;2023-04-25T02:12:18;94751.41;;;7.37;100.00
4590;BME280;2307;48.448;9.216;2023-04-25T02:14:46;94753.59;;;7.28;100.00
4590;BME280;2307;48.448;9.216;2023-04-25T02:17:12;94749.47;;;7.32;100.00
4590;BME280;2307;48.448;9.216;2023-04-25T02:19:38;94743.41;;;7.32;100.00
4590;BME280;2307;48.448;9.216;2023-04-25T02:22:05;94737.59;;;7.18;100.00
4590;BME280;2307;48.448;9.216;2023-04-25T02:24:31;94738.84;;;7.16;100.00
4590;BME280;2307;48.448;9.216;2023-04-25T02:26:58;94734.06;;;7.13;100.00
4590;BME280;2307;48.448;9.216;2023-04-25T02:29:25;94733.72;;;7.21;100.00
4590;BME280;2307;48.448;9.216;2023-04-25T02:31:53;94736.78;;;7.18;100.00
4590;BME280;2307;48.448;9.216;2023-04-25T02:34:19;94735.78;;;7.19;100.00
4590;BME280;2307;48.448;9.216;2023-04-25T02:36:45;94742.28;;;7.16;100.00
4590;BME280;2307;48.448;9.216;2023-04-25T02:39:12;94749.81;;;7.24;100.00
4590;BME280;2307;48.448;9.216;2023-04-25T02:41:38;94746.28;;;7.19;100.00
4590;BME280;2307;48.448;9.216;2023-04-25T02:44:04;94735.34;;;7.10;100.00
4590;BME280;2307;48.448;9.216;2023-04-25T02:46:31;94734.06;;;7.13;100.00
4590;BME280;2307;48.448;9.216;2023-04-25T02:48:58;94739.06;;;7.14;100.00
4590;BME280;2307;48.448;9.216;2023-04-25T02:51:25;94734.88;;;7.13;100.00
4590;BME280;2307;48.448;9.216;2023-04-25T02:53:51;94740.78;;;7.20;100.00
4590;BME280;2307;48.448;9.216;2023-04-25T02:56:18;94733.84;;;7.03;100.00
4590;BME280;2307;48.448;9.216;2023-04-25T02:58:44;94731.78;;;6.93;100.00
4590;BME280;2307;48.448;9.216;2023-04-25T03:01:11;94725.50;;;6.94;100.00
4590;BME280;2307;48.448;9.216;2023-04-25T03:03:37;94728.00;;;6.89;100.00
4590;BME280;2307;48.448;9.216;2023-04-25T03:06:05;94728.34;;;6.92;100.00
4590;BME280;2307;48.448;9.216;2023-04-25T03:08:31;94724.13;;;6.80;100.00
4590;BME280;2307;48.448;9.216;2023-04-25T03:10:59;94721.50;;;6.80;100.00
4590;BME280;2307;48.448;9.216;2023-04-25T03:13:25;94720.50;;;6.81;100.00
4590;BME280;2307;48.448;9.216;2023-04-25T03:15:52;94719.91;;;6.79;100.00
4590;BME280;2307;48.448;9.216;2023-04-25T03:18:18;94716.34;;;6.85;100.00
4590;BME280;2307;48.448;9.216;2023-04-25T03:20:45;94710.78;;;6.81;100.00
4590;BME280;2307;48.448;9.216;2023-04-25T03:23:13;94713.19;;;6.83;100.00
4590;BME280;2307;48.448;9.216;2023-04-25T03:25:39;94705.88;;;6.73;100.00
4590;BME280;2307;48.448;9.216;2023-04-25T03:28:05;94701.06;;;6.82;100.00
4590;BME280;2307;48.448;9.216;2023-04-25T03:30:32;94697.78;;;6.86;100.00
4590;BME280;2307;48.448;9.216;2023-04-25T03:32:58;94697.19;;;6.96;100.00
4590;BME280;2307;48.448;9.216;2023-04-25T03:35:25;94700.72;;;7.02;100.00
4590;BME280;2307;48.448;9.216;2023-04-25T03:37:51;94701.66;;;6.95;100.00
4590;BME280;2307;48.448;9.216;2023-04-25T03:40:19;94695.84;;;6.93;100.00
4590;BME280;2307;48.448;9.216;2023-04-25T03:42:45;94694.69;;;7.01;100.00
4590;BME280;2307;48.448;9.216;2023-04-25T03:45:11;94698.56;;;6.99;100.00
4590;BME280;2307;48.448;9.216;2023-04-25T03:47:38;94699.00;;;7.07;100.00
4590;BME280;2307;48.448;9.216;2023-04-25T03:50:05;94699.47;;;7.04;100.00
4590;BME280;2307;48.448;9.216;2023-04-25T03:52:31;94695.38;;;7.08;100.00
4590;BME280;2307;48.448;9.216;2023-04-25T03:54:57;94695.50;;;7.13;100.00
4590;BME280;2307;48.448;9.216;2023-04-25T03:57:25;94696.28;;;7.02;100.00
4590;BME280;2307;48.448;9.216;2023-04-25T03:59:52;94694.22;;;7.04;100.00
4590;BME280;2307;48.448;9.216;2023-04-25T04:02:18;94702.91;;;6.93;100.00
4590;BME280;2307;48.448;9.216;2023-04-25T04:04:44;94702.91;;;7.05;100.00
4590;BME280;2307;48.448;9.216;2023-04-25T04:07:11;94713.19;;;7.06;100.00
4590;BME280;2307;48.448;9.216;2023-04-25T04:09:37;94709.97;;;7.04;100.00
4590;BME280;2307;48.448;9.216;2023-04-25T04:12:04;94706.09;;;6.95;100.00
4590;BME280;2307;48.448;9.216;2023-04-25T04:14:31;94713.28;;;7.00;100.00
4590;BME280;2307;48.448;9.216;2023-04-25T04:16:58;94717.72;;;7.11;100.00
4590;BME280;2307;48.448;9.216;2023-04-25T04:19:24;94711.00;;;6.91;100.00
4590;BME280;2307;48.448;9.216;2023-04-25T04:21:50;94712.16;;;6.95;100.00
4590;BME280;2307;48.448;9.216;2023-04-25T04:24:17;94715.34;;;7.09;100.00
4590;BME280;2307;48.448;9.216;2023-04-25T04:26:43;94713.88;;;7.13;100.00
4590;BME280;2307;48.448;9.216;2023-04-25T04:29:11;94711.22;;;7.02;100.00
4590;BME280;2307;48.448;9.216;2023-04-25T04:31:46;94709.31;;;6.97;100.00
4590;BME280;2307;48.448;9.216;2023-04-25T04:34:13;94701.53;;;7.02;100.00
4590;BME280;2307;48.448;9.216;2023-04-25T04:36:41;94694.91;;;7.11;100.00
4590;BME280;2307;48.448;9.216;2023-04-25T04:39:07;94695.16;;;7.10;100.00
4590;BME280;2307;48.448;9.216;2023-04-25T04:41:34;94696.97;;;7.09;100.00
4590;BME280;2307;48.448;9.216;2023-04-25T04:44:01;94701.75;;;7.12;100.00
4590;BME280;2307;48.448;9.216;2023-04-25T04:46:28;94703.38;;;7.13;100.00
4590;BME280;2307;48.448;9.216;2023-04-25T04:48:56;94701.75;;;7.12;100.00
4590;BME280;2307;48.448;9.216;2023-04-25T04:51:23;94700.84;;;7.18;100.00
4590;BME280;2307;48.448;9.216;2023-04-25T04:53:50;94708.63;;;7.13;100.00
4590;BME280;2307;48.448;9.216;2023-04-25T04:56:17;94706.88;;;7.19;100.00
4590;BME280;2307;48.448;9.216;2023-04-25T04:58:45;94716.81;;;7.28;100.00
4590;BME280;2307;48.448;9.216;2023-04-25T05:01:14;94720.81;;;7.19;100.00
4590;BME280;2307;48.448;9.216;2023-04-25T05:03:40;94722.41;;;7.20;100.00
4590;BME280;2307;48.448;9.216;2023-04-25T05:06:08;94731.19;;;7.14;100.00
4590;BME280;2307;48.448;9.216;2023-04-25T05:08:35;94731.78;;;7.16;100.00
4590;BME280;2307;48.448;9.216;2023-04-25T05:11:01;94734.50;;;7.21;100.00
4590;BME280;2307;48.448;9.216;2023-04-25T05:13:27;94733.72;;;7.32;100.00
4590;BME280;2307;48.448;9.216;2023-04-25T05:15:54;94730.25;;;7.43;100.00
4590;BME280;2307;48.448;9.216;2023-04-25T05:18:20;94735.28;;;7.33;100.00
4590;BME280;2307;48.448;9.216;2023-04-25T05:20:47;94735.06;;;7.46;100.00
4590;BME280;2307;48.448;9.216;2023-04-25T05:23:14;94736.06;;;7.45;100.00
4590;BME280;2307;48.448;9.216;2023-04-25T05:25:41;94727.59;;;7.55;100.00
4590;BME280;2307;48.448;9.216;2023-04-25T05:28:07;94731.97;;;7.49;100.00
4590;BME280;2307;48.448;9.216;2023-04-25T05:30:34;94732.09;;;7.31;100.00
4590;BME280;2307;48.448;9.216;2023-04-25T05:33:00;94728.34;;;7.16;100.00
4590;BME280;2307;48.448;9.216;2023-04-25T05:35:27;94730.28;;;7.09;100.00
4590;BME280;2307;48.448;9.216;2023-04-25T05:37:53;94721.16;;;7.11;100.00
4590;BME280;2307;48.448;9.216;2023-04-25T05:40:21;94715.88;;;7.34;100.00
4590;BME280;2307;48.448;9.216;2023-04-25T05:42:47;94719.84;;;7.48;100.00
4590;BME280;2307;48.448;9.216;2023-04-25T05:45:14;94718.94;;;7.55;100.00
4590;BME280;2307;48.448;9.216;2023-04-25T05:47:40;94714.91;;;7.64;100.00
4590;BME280;2307;48.448;9.216;2023-04-25T05:50:07;94713.31;;;7.63;100.00
4590;BME280;2307;48.448;9.216;2023-04-25T05:52:33;94706.72;;;7.48;100.00
4590;BME280;2307;48.448;9.216;2023-04-25T05:55:00;94696.19;;;7.48;100.00
4590;BME280;2307;48.448;9.216;2023-04-25T05:57:28;94687.75;;;7.46;100.00
4590;BME280;2307;48.448;9.216;2023-04-25T05:59:54;94696.66;;;7.57;100.00
4590;BME280;2307;48.448;9.216;2023-04-25T06:02:21;94698.94;;;7.54;100.00
4590;BME280;2307;48.448;9.216;2023-04-25T06:04:47;94703.81;;;7.73;100.00
4590;BME280;2307;48.448;9.216;2023-04-25T06:07:14;94713.00;;;7.87;100.00
4590;BME280;2307;48.448;9.216;2023-04-25T06:09:40;94720.47;;;7.79;100.00
4590;BME280;2307;48.448;9.216;2023-04-25T06:12:07;94721.50;;;7.78;100.00
4590;BME280;2307;48.448;9.216;2023-04-25T06:14:34;94724.25;;;7.99;100.00
4590;BME280;2307;48.448;9.216;2023-04-25T06:17:03;94722.16;;;8.13;100.00
4590;BME280;2307;48.448;9.216;2023-04-25T06:19:31;94718.78;;;8.01;100.00
4590;BME280;2307;48.448;9.216;2023-04-25T06:21:58;94723.03;;;8.02;100.00
4590;BME280;2307;48.448;9.216;2023-04-25T06:24:24;94730.53;;;8.10;100.00
4590;BME280;2307;48.448;9.216;2023-04-25T06:26:50;94732.19;;;8.16;100.00
4590;BME280;2307;48.448;9.216;2023-04-25T06:29:17;94726.88;;;8.11;100.00
4590;BME280;2307;48.448;9.216;2023-04-25T06:31:45;94730.03;;;8.13;100.00
4590;BME280;2307;48.448;9.216;2023-04-25T06:34:11;94723.69;;;8.26;100.00
4590;BME280;2307;48.448;9.216;2023-04-25T06:36:38;94719.72;;;8.23;100.00
4590;BME280;2307;48.448;9.216;2023-04-25T06:39:06;94716.06;;;8.24;100.00
4590;BME280;2307;48.448;9.216;2023-04-25T06:41:34;94723.69;;;8.26;100.00
4590;BME280;2307;48.448;9.216;2023-04-25T06:44:00;94728.28;;;8.30;100.00
4590;BME280;2307;48.448;9.216;2023-04-25T06:46:26;94734.28;;;8.42;100.00
4590;BME280;2307;48.448;9.216;2023-04-25T06:48:54;94730.78;;;8.37;100.00
4590;BME280;2307;48.448;9.216;2023-04-25T06:51:21;94727.91;;;8.38;100.00
4590;BME280;2307;48.448;9.216;2023-04-25T06:53:49;94729.34;;;8.46;100.00
4590;BME280;2307;48.448;9.216;2023-04-25T06:56:15;94733.25;;;8.43;100.00
4590;BME280;2307;48.448;9.216;2023-04-25T06:58:42;94730.63;;;8.43;100.00
4590;BME280;2307;48.448;9.216;2023-04-25T07:01:08;94731.72;;;8.47;100.00
4590;BME280;2307;48.448;9.216;2023-04-25T07:03:34;94729.19;;;8.52;100.00
4590;BME280;2307;48.448;9.216;2023-04-25T07:06:03;94736.63;;;8.56;100.00
4590;BME280;2307;48.448;9.216;2023-04-25T07:08:30;94734.78;;;8.56;100.00
4590;BME280;2307;48.448;9.216;2023-04-25T07:10:56;94732.72;;;8.58;100.00
4590;BME280;2307;48.448;9.216;2023-04-25T07:13:22;94736.69;;;8.61;100.00
4590;BME280;2307;48.448;9.216;2023-04-25T07:15:49;94735.56;;;8.40;100.00
4590;BME280;2307;48.448;9.216;2023-04-25T07:18:15;94732.59;;;8.36;100.00
4590;BME280;2307;48.448;9.216;2023-04-25T07:20:42;94730.91;;;8.30;100.00
4590;BME280;2307;48.448;9.216;2023-04-25T07:23:09;94729.56;;;8.16;100.00
4590;BME280;2307;48.448;9.216;2023-04-25T07:25:36;94735.09;;;8.15;100.00
4590;BME280;2307;48.448;9.216;2023-04-25T07:28:02;94733.88;;;8.22;100.00
4590;BME280;2307;48.448;9.216;2023-04-25T07:30:29;94740.75;;;8.23;100.00
4590;BME280;2307;48.448;9.216;2023-04-25T07:32:55;94736.00;;;8.09;100.00
4590;BME280;2307;48.448;9.216;2023-04-25T07:35:22;94745.50;;;8.10;100.00
4590;BME280;2307;48.448;9.216;2023-04-25T07:37:48;94737.06;;;7.96;100.00
4590;BME280;2307;48.448;9.216;2023-04-25T07:40:16;94739.69;;;7.96;100.00
4590;BME280;2307;48.448;9.216;2023-04-25T07:42:43;94749.59;;;7.89;100.00
4590;BME280;2307;48.448;9.216;2023-04-25T07:45:09;94743.19;;;7.85;100.00
4590;BME280;2307;48.448;9.216;2023-04-25T07:47:36;94759.44;;;7.82;100.00
4590;BME280;2307;48.448;9.216;2023-04-25T07:50:03;94757.47;;;7.77;100.00
4590;BME280;2307;48.448;9.216;2023-04-25T07:52:29;94765.09;;;7.51;100.00
4590;BME280;2307;48.448;9.216;2023-04-25T07:54:56;94768.88;;;7.31;100.00
4590;BME280;2307;48.448;9.216;2023-04-25T07:57:25;94769.31;;;7.17;100.00
4590;BME280;2307;48.448;9.216;2023-04-25T07:59:51;94774.00;;;6.91;100.00
4590;BME280;2307;48.448;9.216;2023-04-25T08:02:17;94766.00;;;6.86;100.00
4590;BME280;2307;48.448;9.216;2023-04-25T08:04:44;94771.63;;;6.90;100.00
4590;BME280;2307;48.448;9.216;2023-04-25T08:07:10;94778.56;;;6.84;100.00
4590;BME280;2307;48.448;9.216;2023-04-25T08:09:37;94774.81;;;6.92;100.00
4590;BME280;2307;48.448;9.216;2023-04-25T08:12:03;94779.34;;;6.85;100.00
4590;BME280;2307;48.448;9.216;2023-04-25T08:14:31;94785.75;;;6.89;100.00
4590;BME280;2307;48.448;9.216;2023-04-25T08:17:01;94779.59;;;6.95;100.00
4590;BME280;2307;48.448;9.216;2023-04-25T08:19:27;94786.69;;;7.06;100.00
4590;BME280;2307;48.448;9.216;2023-04-25T08:21:54;94786.44;;;7.08;100.00
4590;BME280;2307;48.448;9.216;2023-04-25T08:24:21;94790.13;;;7.18;100.00
4590;BME280;2307;48.448;9.216;2023-04-25T08:26:47;94800.03;;;7.05;100.00
4590;BME280;2307;48.448;9.216;2023-04-25T08:29:14;94802.41;;;6.83;100.00
4590;BME280;2307;48.448;9.216;2023-04-25T08:31:41;94807.34;;;6.91;100.00
4590;BME280;2307;48.448;9.216;2023-04-25T08:34:08;94808.16;;;7.03;100.00
4590;BME280;2307;48.448;9.216;2023-04-25T08:36:34;94811.44;;;6.99;100.00
4590;BME280;2307;48.448;9.216;2023-04-25T08:39:01;94811.13;;;7.07;100.00
4590;BME280;2307;48.448;9.216;2023-04-25T08:41:36;94819.66;;;6.90;100.00
4590;BME280;2307;48.448;9.216;2023-04-25T08:44:03;94829.59;;;7.00;100.00
4590;BME280;2307;48.448;9.216;2023-04-25T08:46:30;94833.81;;;7.01;100.00
4590;BME280;2307;48.448;9.216;2023-04-25T08:49:00;94842.25;;;6.91;100.00
4590;BME280;2307;48.448;9.216;2023-04-25T08:51:26;94841.91;;;6.88;100.00
4590;BME280;2307;48.448;9.216;2023-04-25T08:53:53;94844.84;;;6.80;100.00
4590;BME280;2307;48.448;9.216;2023-04-25T08:56:20;94846.28;;;6.64;100.00
4590;BME280;2307;48.448;9.216;2023-04-25T08:58:48;94849.38;;;6.73;100.00
4590;BME280;2307;48.448;9.216;2023-04-25T09:01:15;94848.81;;;6.71;100.00
4590;BME280;2307;48.448;9.216;2023-04-25T09:03:41;94858.31;;;6.72;100.00
4590;BME280;2307;48.448;9.216;2023-04-25T09:06:09;94857.97;;;6.80;100.00
4590;BME280;2307;48.448;9.216;2023-04-25T09:08:36;94877.06;;;6.87;100.00
4590;BME280;2307;48.448;9.216;2023-04-25T09:11:05;94881.66;;;6.62;100.00
4590;BME280;2307;48.448;9.216;2023-04-25T09:13:31;94889.59;;;6.55;100.00
4590;BME280;2307;48.448;9.216;2023-04-25T09:15:58;94889.69;;;6.49;100.00
4590;BME280;2307;48.448;9.216;2023-04-25T09:18:24;94896.53;;;6.50;100.00
4590;BME280;2307;48.448;9.216;2023-04-25T09:20:51;94912.88;;;6.33;100.00
4590;BME280;2307;48.448;9.216;2023-04-25T09:23:19;94915.50;;;5.97;100.00
4590;BME280;2307;48.448;9.216;2023-04-25T09:25:47;94923.59;;;5.71;100.00
4590;BME280;2307;48.448;9.216;2023-04-25T09:28:13;94926.47;;;5.45;100.00
4590;BME280;2307;48.448;9.216;2023-04-25T09:30:39;94925.22;;;5.22;100.00
4590;BME280;2307;48.448;9.216;2023-04-25T09:33:06;94926.94;;;5.10;100.00
4590;BME280;2307;48.448;9.216;2023-04-25T09:35:35;94928.63;;;4.92;100.00
4590;BME280;2307;48.448;9.216;2023-04-25T09:38:06;94939.78;;;4.80;100.00
4590;BME280;2307;48.448;9.216;2023-04-25T09:40:34;94946.06;;;4.73;100.00
4590;BME280;2307;48.448;9.216;2023-04-25T09:43:08;94938.59;;;4.76;100.00
4590;BME280;2307;48.448;9.216;2023-04-25T09:45:39;94949.94;;;4.64;100.00
4590;BME280;2307;48.448;9.216;2023-04-25T09:48:06;94949.16;;;4.57;100.00
4590;BME280;2307;48.448;9.216;2023-04-25T09:50:32;94946.78;;;4.49;100.00
4590;BME280;2307;48.448;9.216;2023-04-25T09:53:02;94951.34;;;4.60;100.00
4590;BME280;2307;48.448;9.216;2023-04-25T09:55:28;94949.81;;;4.46;100.00
4590;BME280;2307;48.448;9.216;2023-04-25T09:57:56;94960.00;;;4.60;100.00
4590;BME280;2307;48.448;9.216;2023-04-25T10:00:27;94952.22;;;4.47;100.00
4590;BME280;2307;48.448;9.216;2023-04-25T10:02:54;94955.41;;;4.56;100.00
4590;BME280;2307;48.448;9.216;2023-04-25T10:05:32;94962.59;;;4.67;100.00
4590;BME280;2307;48.448;9.216;2023-04-25T10:08:01;94964.56;;;4.78;100.00
4590;BME280;2307;48.448;9.216;2023-04-25T10:10:28;94967.09;;;4.91;100.00
4590;BME280;2307;48.448;9.216;2023-04-25T10:12:59;94970.75;;;4.83;100.00
4590;BME280;2307;48.448;9.216;2023-04-25T10:15:26;94972.53;;;4.90;100.00
4590;BME280;2307;48.448;9.216;2023-04-25T10:17:55;94970.38;;;4.80;100.00
4590;BME280;2307;48.448;9.216;2023-04-25T10:20:22;94971.06;;;4.62;100.00
4590;BME280;2307;48.448;9.216;2023-04-25T10:22:49;94971.16;;;4.43;100.00
4590;BME280;2307;48.448;9.216;2023-04-25T10:25:21;94984.06;;;4.31;100.00
4590;BME280;2307;48.448;9.216;2023-04-25T10:27:49;94982.06;;;4.20;100.00
4590;BME280;2307;48.448;9.216;2023-04-25T10:30:17;94985.75;;;4.06;100.00
4590;BME280;2307;48.448;9.216;2023-04-25T10:32:44;94985.69;;;4.19;100.00
4590;BME280;2307;48.448;9.216;2023-04-25T10:35:13;94980.06;;;4.22;100.00
4590;BME280;2307;48.448;9.216;2023-04-25T10:40:22;94990.56;;;4.02;100.00
4590;BME280;2307;48.448;9.216;2023-04-25T10:42:48;94990.75;;;4.14;100.00
4590;BME280;2307;48.448;9.216;2023-04-25T10:45:15;94997.16;;;4.24;100.00
4590;BME280;2307;48.448;9.216;2023-04-25T10:50:14;95003.78;;;4.27;100.00
4590;BME280;2307;48.448;9.216;2023-04-25T10:52:41;95001.59;;;4.17;100.00
4590;BME280;2307;48.448;9.216;2023-04-25T10:55:08;95011.84;;;4.12;100.00
4590;BME280;2307;48.448;9.216;2023-04-25T10:57:38;95014.69;;;4.04;100.00
4590;BME280;2307;48.448;9.216;2023-04-25T11:00:06;95021.94;;;4.02;100.00
4590;BME280;2307;48.448;9.216;2023-04-25T11:02:36;95019.09;;;3.97;100.00
4590;BME280;2307;48.448;9.216;2023-04-25T11:05:03;95016.28;;;4.05;100.00
4590;BME280;2307;48.448;9.216;2023-04-25T11:07:33;95018.50;;;4.15;100.00
4590;BME280;2307;48.448;9.216;2023-04-25T11:10:02;95014.66;;;4.17;100.00
4590;BME280;2307;48.448;9.216;2023-04-25T11:12:29;95023.09;;;4.13;100.00
4590;BME280;2307;48.448;9.216;2023-04-25T11:14:58;95021.88;;;4.22;100.00
4590;BME280;2307;48.448;9.216;2023-04-25T11:17:26;95022.88;;;4.27;100.00
4590;BME280;2307;48.448;9.216;2023-04-25T11:19:53;95028.50;;;4.31;100.00
4590;BME280;2307;48.448;9.216;2023-04-25T11:22:20;95030.69;;;4.41;100.00
4590;BME280;2307;48.448;9.216;2023-04-25T11:24:48;95033.03;;;4.62;100.00
4590;BME280;2307;48.448;9.216;2023-04-25T11:27:15;95035.00;;;4.66;100.00
4590;BME280;2307;48.448;9.216;2023-04-25T11:29:41;95027.38;;;4.71;100.00
4590;BME280;2307;48.448;9.216;2023-04-25T11:32:08;95038.22;;;4.75;100.00
4590;BME280;2307;48.448;9.216;2023-04-25T11:34:35;95035.25;;;4.58;100.00
4590;BME280;2307;48.448;9.216;2023-04-25T11:37:01;95035.44;;;4.57;100.00
4590;BME280;2307;48.448;9.216;2023-04-25T11:39:28;95041.84;;;4.67;100.00
4590;BME280;2307;48.448;9.216;2023-04-25T11:41:56;95039.16;;;4.87;100.00
4590;BME280;2307;48.448;9.216;2023-04-25T11:44:22;95041.78;;;4.87;100.00
4590;BME280;2307;48.448;9.216;2023-04-25T11:46:49;95030.91;;;4.90;100.00
4590;BME280;2307;48.448;9.216;2023-04-25T11:49:15;95044.53;;;4.99;100.00
4590;BME280;2307;48.448;9.216;2023-04-25T11:51:44;95040.47;;;5.09;100.00
4590;BME280;2307;48.448;9.216;2023-04-25T11:54:11;95051.88;;;5.21;100.00
4590;BME280;2307;48.448;9.216;2023-04-25T11:56:40;95063.84;;;5.04;100.00
4590;BME280;2307;48.448;9.216;2023-04-25T11:59:08;95059.00;;;5.08;100.00
4590;BME280;2307;48.448;9.216;2023-04-25T12:01:35;95063.56;;;4.81;100.00
4590;BME280;2307;48.448;9.216;2023-04-25T12:04:16;95060.31;;;4.79;100.00
4590;BME280;2307;48.448;9.216;2023-04-25T12:06:43;95059.88;;;4.89;100.00
4590;BME280;2307;48.448;9.216;2023-04-25T12:09:11;95069.56;;;4.88;100.00
4590;BME280;2307;48.448;9.216;2023-04-25T12:11:41;95065.31;;;4.94;100.00
4590;BME280;2307;48.448;9.216;2023-04-25T12:14:10;95065.97;;;4.76;100.00
4590;BME280;2307;48.448;9.216;2023-04-25T12:16:40;95064.78;;;4.72;100.00
4590;BME280;2307;48.448;9.216;2023-04-25T12:19:07;95066.69;;;4.96;100.00
4590;BME280;2307;48.448;9.216;2023-04-25T12:21:33;95070.06;;;5.10;100.00
4590;BME280;2307;48.448;9.216;2023-04-25T12:24:08;95067.75;;;5.26;100.00
4590;BME280;2307;48.448;9.216;2023-04-25T12:26:45;95069.75;;;5.31;100.00
4590;BME280;2307;48.448;9.216;2023-04-25T12:29:16;95073.88;;;5.52;100.00
4590;BME280;2307;48.448;9.216;2023-04-25T12:31:42;95066.03;;;5.52;100.00
4590;BME280;2307;48.448;9.216;2023-04-25T12:34:09;95070.22;;;5.53;100.00
4590;BME280;2307;48.448;9.216;2023-04-25T12:36:35;95072.09;;;5.77;100.00
4590;BME280;2307;48.448;9.216;2023-04-25T12:39:01;95080.28;;;5.87;100.00
4590;BME280;2307;48.448;9.216;2023-04-25T12:41:29;95071.91;;;5.72;100.00
4590;BME280;2307;48.448;9.216;2023-04-25T12:43:55;95083.03;;;5.99;100.00
4590;BME280;2307;48.448;9.216;2023-04-25T12:46:23;95087.06;;;6.01;100.00
4590;BME280;2307;48.448;9.216;2023-04-25T12:48:50;95083.09;;;5.92;100.00
4590;BME280;2307;48.448;9.216;2023-04-25T12:51:16;95078.44;;;5.94;100.00
4590;BME280;2307;48.448;9.216;2023-04-25T12:53:43;95097.88;;;6.11;100.00
4590;BME280;2307;48.448;9.216;2023-04-25T12:56:09;95089.66;;;6.26;100.00
4590;BME280;2307;48.448;9.216;2023-04-25T12:58:36;95091.22;;;6.33;100.00
4590;BME280;2307;48.448;9.216;2023-04-25T13:01:02;95088.31;;;6.41;100.00
4590;BME280;2307;48.448;9.216;2023-04-25T13:03:30;95089.34;;;6.59;100.00
4590;BME280;2307;48.448;9.216;2023-04-25T13:05:56;95091.47;;;6.68;100.00
4590;BME280;2307;48.448;9.216;2023-04-25T13:08:24;95089.66;;;6.87;100.00
4590;BME280;2307;48.448;9.216;2023-04-25T13:10:50;95083.97;;;6.72;100.00
4590;BME280;2307;48.448;9.216;2023-04-25T13:13:17;95087.91;;;6.81;100.00
4590;BME280;2307;48.448;9.216;2023-04-25T13:15:43;95085.84;;;7.19;100.00
4590;BME280;2307;48.448;9.216;2023-04-25T13:18:09;95092.25;;;7.41;100.00
4590;BME280;2307;48.448;9.216;2023-04-25T13:20:37;95087.09;;;7.46;100.00
4590;BME280;2307;48.448;9.216;2023-04-25T13:23:04;95087.47;;;7.50;100.00
4590;BME280;2307;48.448;9.216;2023-04-25T13:25:30;95099.50;;;7.58;100.00
4590;BME280;2307;48.448;9.216;2023-04-25T13:27:56;95090.56;;;7.59;100.00